Time;durP1;ratioP1;P1;durP2;ratioP2;P2;SDS_P1;SDS_P2;PMS_P1;PMS_P2;Temp;Humidity;BMP_temperature;BMP_pressure;BME280_temperature;BME280_humidity;BME280_pressure;Samples;Min_cycle;Max_cycle;Signal;HPM_P1;HPM_P2
2021/09/19 00:00:02;;;;;;;;;;;;;;;;;;5050674;28;19924;-90
2021/09/19 00:02:33;;;;;;;;;;;;;;;;;;5058594;28;19929;-88
2021/09/19 00:05:02;;;;;;;;;;;;;;;;;;5062605;28;19929;-90
2021/09/19 00:07:31;;;;;;;;;;;;;;;;;;5047749;28;19924;-90
2021/09/19 00:10:04;;;;;;;;;;;;;;;;;;5040837;28;19929;-90
2021/09/19 00:12:33;;;;;;;;;;;;;;;;;;5041085;28;19925;-90
2021/09/19 00:15:01;;;;;;;;;;;;;;;;;;5050527;28;19925;-91
2021/09/19 00:17:30;;;;;;;;;;;;;;;;;;5049446;28;19929;-90
2021/09/19 00:20:00;;;;;;;;;;;;;;;;;;5048034;28;19932;-92
2021/09/19 00:22:28;;;;;;;;;;;;;;;;;;5080345;28;19931;-92
2021/09/19 00:24:57;;;;;;;;;;;;;;;;;;5052445;28;19932;-92
2021/09/19 00:27:28;;;;;;;;;;;;;;;;;;5051177;28;19936;-92
2021/09/19 00:30:05;;;;;;;;;;;;;;;;;;5056166;28;19925;-92
2021/09/19 00:32:34;;;;;;;;;;;;;;;;;;5066323;28;19928;-92
2021/09/19 00:35:02;;;;;;;;;;;;;;;;;;5063480;28;19936;-91
2021/09/19 00:37:32;;;;;;;;;;;;;;;;;;5060150;28;20312;-93
2021/09/19 00:40:00;;;;;;;;;;;;;;;;;;5058372;28;19931;-92
2021/09/19 00:42:30;;;;;;;;;;;;;;;;;;5049717;28;20332;-92
2021/09/19 00:44:59;;;;;;;;;;;;;;;;;;5052798;28;19925;-92
2021/09/19 00:47:27;;;;;;;;;;;;;;;;;;5052122;28;19924;-92
2021/09/19 00:49:55;;;;;;;;;;;;;;;;;;5050041;28;20316;-91
2021/09/19 00:52:24;;;;;;;;;;;;;;;;;;5054706;28;19932;-92
2021/09/19 00:54:52;;;;;;;;;;;;;;;;;;5054029;28;19936;-92
2021/09/19 00:57:20;;;;;;;;;;;;;;;;;;5066811;28;19932;-91
2021/09/19 00:59:50;;;;;;;;;;;;;;;;;;5052458;28;19931;-90
2021/09/19 01:02:19;;;;;;;;;;;;;;;;;;5046723;28;20332;-91
2021/09/19 01:04:47;;;;;;;;;;;;;;;;;;5066667;28;20376;-91
2021/09/19 01:07:16;;;;;;;;;;;;;;;;;;5058995;28;19935;-92
2021/09/19 01:09:44;;;;;;;;;;;;;;;;;;5052294;28;19924;-90
2021/09/19 01:12:13;;;;;;;;;;;;;;;;;;5050568;28;19924;-91
2021/09/19 01:14:41;;;;;;;;;;;;;;;;;;5081122;28;19947;-90
2021/09/19 01:17:11;;;;;;;;;;;;;;;;;;5057052;28;19948;-92
2021/09/19 01:19:39;;;;;;;;;;;;;;;;;;5052219;28;19924;-91
2021/09/19 01:22:08;;;;;;;;;;;;;;;;;;5074730;28;19995;-91
2021/09/19 01:24:38;;;;;;;;;;;;;;;;;;5057758;28;20289;-93
2021/09/19 01:27:07;;;;;;;;;;;;;;;;;;5056902;28;19925;-90
2021/09/19 01:29:35;;;;;;;;;;;;;;;;;;5057781;28;19929;-93
2021/09/19 01:32:04;;;;;;;;;;;;;;;;;;5061983;28;19929;-93
2021/09/19 01:34:32;;;;;;;;;;;;;;;;;;5074360;28;19924;-93
2021/09/19 01:37:01;;;;;;;;;;;;;;;;;;5071921;28;20328;-92
2021/09/19 01:43:33;;;;;;;;;;;;;;;;;;5090288;28;19923;-94
2021/09/19 01:46:07;;;;;;;;;;;;;;;;;;5079382;28;19931;-93
2021/09/19 01:49:28;;;;;;;;;;;;;;;;;;5069942;28;19931;-91
2021/09/19 01:51:56;;;;;;;;;;;;;;;;;;5027245;28;19968;-89
2021/09/19 01:54:24;;;;;;;;;;;;;;;;;;5014779;28;19925;-90
2021/09/19 01:56:53;;;;;;;;;;;;;;;;;;5035421;28;19913;-92
2021/09/19 01:59:23;;;;;;;;;;;;;;;;;;5029918;28;19932;-94
2021/09/19 02:01:52;;;;;;;;;;;;;;;;;;5039568;28;19909;-95
2021/09/19 02:04:21;;;;;;;;;;;;;;;;;;5031927;28;19913;-92
2021/09/19 02:06:49;;;;;;;;;;;;;;;;;;5049957;28;19913;-96
2021/09/19 02:09:19;;;;;;;;;;;;;;;;;;5038213;28;19933;-92
2021/09/19 02:11:48;;;;;;;;;;;;;;;;;;5022963;28;19925;-90
2021/09/19 02:14:17;;;;;;;;;;;;;;;;;;5032924;28;19936;-94
2021/09/19 02:16:49;;;;;;;;;;;;;;;;;;5047177;28;19933;-90
2021/09/19 02:19:18;;;;;;;;;;;;;;;;;;5017670;28;19933;-92
2021/09/19 02:21:47;;;;;;;;;;;;;;;;;;5010489;28;20290;-93
2021/09/19 02:24:15;;;;;;;;;;;;;;;;;;5029567;28;19925;-92
2021/09/19 02:26:44;;;;;;;;;;;;;;;;;;5012791;28;20292;-91
2021/09/19 02:29:12;;;;;;;;;;;;;;;;;;5017225;28;19925;-92
2021/09/19 02:31:40;;;;;;;;;;;;;;;;;;5017814;28;20059;-92
2021/09/19 02:34:10;;;;;;;;;;;;;;;;;;5021070;28;19931;-95
2021/09/19 02:36:40;;;;;;;;;;;;;;;;;;5040728;28;19909;-92
2021/09/19 02:39:09;;;;;;;;;;;;;;;;;;5039233;28;19999;-92
2021/09/19 02:41:37;;;;;;;;;;;;;;;;;;5065567;28;19917;-94
2021/09/19 02:44:05;;;;;;;;;;;;;;;;;;5074642;28;19927;-92
2021/09/19 02:46:43;;;;;;;;;;;;;;;;;;5074675;28;19923;-93
2021/09/19 02:49:13;;;;;;;;;;;;;;;;;;5071475;28;19912;-94
2021/09/19 02:51:42;;;;;;;;;;;;;;;;;;5078949;28;19909;-93
2021/09/19 02:54:10;;;;;;;;;;;;;;;;;;5069634;28;19924;-93
2021/09/19 02:56:38;;;;;;;;;;;;;;;;;;5065140;28;19980;-92
2021/09/19 02:59:08;;;;;;;;;;;;;;;;;;5062570;28;20094;-93
2021/09/19 03:01:36;;;;;;;;;;;;;;;;;;5072151;28;19912;-93
2021/09/19 03:04:05;;;;;;;;;;;;;;;;;;5067020;28;19921;-93
2021/09/19 03:06:35;;;;;;;;;;;;;;;;;;5059974;28;19924;-93
2021/09/19 03:09:03;;;;;;;;;;;;;;;;;;5056909;28;19925;-94
2021/09/19 03:11:31;;;;;;;;;;;;;;;;;;5068690;28;19924;-92
2021/09/19 03:14:00;;;;;;;;;;;;;;;;;;5050587;28;19928;-92
2021/09/19 03:16:28;;;;;;;;;;;;;;;;;;5080261;28;20423;-93
2021/09/19 03:18:57;;;;;;;;;;;;;;;;;;5058174;28;19925;-93
2021/09/19 03:21:25;;;;;;;;;;;;;;;;;;5064063;28;19936;-93
2021/09/19 03:23:55;;;;;;;;;;;;;;;;;;5057132;28;20396;-92
2021/09/19 03:26:23;;;;;;;;;;;;;;;;;;5052509;28;19931;-93
2021/09/19 03:28:51;;;;;;;;;;;;;;;;;;5042425;28;19925;-93
2021/09/19 03:31:20;;;;;;;;;;;;;;;;;;5068424;28;20294;-90
2021/09/19 03:33:48;;;;;;;;;;;;;;;;;;5057806;28;19924;-93
2021/09/19 03:36:17;;;;;;;;;;;;;;;;;;5057081;28;19928;-90
2021/09/19 03:38:45;;;;;;;;;;;;;;;;;;5053765;28;19932;-91
2021/09/19 03:41:15;;;;;;;;;;;;;;;;;;5042930;28;19925;-92
2021/09/19 03:43:43;;;;;;;;;;;;;;;;;;5058965;28;19925;-92
2021/09/19 03:46:12;;;;;;;;;;;;;;;;;;5050569;28;20335;-93
2021/09/19 03:48:40;;;;;;;;;;;;;;;;;;5060151;28;19925;-92
2021/09/19 03:51:08;;;;;;;;;;;;;;;;;;5060243;28;20579;-93
2021/09/19 03:53:37;;;;;;;;;;;;;;;;;;5060595;28;19936;-92
2021/09/19 03:56:06;;;;;;;;;;;;;;;;;;5055590;28;19943;-92
2021/09/19 03:58:36;;;;;;;;;;;;;;;;;;5053202;28;19928;-94
2021/09/19 04:01:04;;;;;;;;;;;;;;;;;;5068003;28;19925;-91
2021/09/19 04:03:33;;;;;;;;;;;;;;;;;;5069402;28;20410;-94
2021/09/19 04:06:02;;;;;;;;;;;;;;;;;;5071559;28;19929;-94
2021/09/19 04:08:30;;;;;;;;;;;;;;;;;;5067928;28;19923;-93
2021/09/19 04:10:58;;;;;;;;;;;;;;;;;;5087784;28;19919;-94
2021/09/19 04:13:28;;;;;;;;;;;;;;;;;;5090845;28;19929;-94
2021/09/19 04:15:57;;;;;;;;;;;;;;;;;;5084819;28;19933;-94
2021/09/19 04:18:26;;;;;;;;;;;;;;;;;;5073911;28;19909;-94
2021/09/19 04:20:54;;;;;;;;;;;;;;;;;;5078285;28;19915;-94
2021/09/19 04:23:23;;;;;;;;;;;;;;;;;;5088193;28;19921;-95
2021/09/19 04:34:55;;;;;;;;;;;;;;;;;;5020967;28;19929;-92
2021/09/19 04:37:24;;;;;;;;;;;;;;;;;;4994122;28;19929;-90
2021/09/19 04:39:52;;;;;;;;;;;;;;;;;;5010445;28;19925;-92
2021/09/19 04:42:21;;;;;;;;;;;;;;;;;;5015730;28;19939;-92
2021/09/19 04:44:50;;;;;;;;;;;;;;;;;;4995573;28;19925;-91
2021/09/19 04:47:18;;;;;;;;;;;;;;;;;;5031162;28;19933;-90
2021/09/19 04:49:46;;;;;;;;;;;;;;;;;;5007297;28;19925;-91
2021/09/19 04:52:16;;;;;;;;;;;;;;;;;;4997794;28;20313;-91
2021/09/19 04:54:44;;;;;;;;;;;;;;;;;;5016415;28;19925;-91
2021/09/19 04:57:12;;;;;;;;;;;;;;;;;;5021252;28;20389;-90
2021/09/19 04:59:41;;;;;;;;;;;;;;;;;;4998500;28;20301;-88
2021/09/19 05:02:09;;;;;;;;;;;;;;;;;;5007395;28;19925;-89
2021/09/19 05:04:37;;;;;;;;;;;;;;;;;;4996984;28;19930;-92
2021/09/19 05:07:06;;;;;;;;;;;;;;;;;;5000579;28;19925;-91
2021/09/19 05:09:35;;;;;;;;;;;;;;;;;;4993631;28;20180;-91
2021/09/19 05:12:04;;;;;;;;;;;;;;;;;;4997289;28;19925;-92
2021/09/19 05:14:32;;;;;;;;;;;;;;;;;;4990411;28;19929;-91
2021/09/19 05:17:00;;;;;;;;;;;;;;;;;;4998304;28;19925;-91
2021/09/19 05:19:28;;;;;;;;;;;;;;;;;;5001743;28;19929;-91
2021/09/19 05:21:57;;;;;;;;;;;;;;;;;;5003811;28;19925;-91
2021/09/19 05:24:25;;;;;;;;;;;;;;;;;;5022105;28;19929;-91
2021/09/19 05:26:55;;;;;;;;;;;;;;;;;;5004413;28;19932;-92
2021/09/19 05:29:23;;;;;;;;;;;;;;;;;;5004221;28;19925;-92
2021/09/19 05:31:51;;;;;;;;;;;;;;;;;;5000340;28;19932;-91
2021/09/19 05:34:20;;;;;;;;;;;;;;;;;;4996055;28;19925;-92
2021/09/19 05:36:48;;;;;;;;;;;;;;;;;;5004511;28;19925;-91
2021/09/19 05:39:16;;;;;;;;;;;;;;;;;;5008432;28;19925;-93
2021/09/19 05:41:45;;;;;;;;;;;;;;;;;;5001566;28;19925;-93
2021/09/19 05:44:15;;;;;;;;;;;;;;;;;;5021949;28;20328;-92
2021/09/19 05:46:43;;;;;;;;;;;;;;;;;;5010277;28;19925;-93
2021/09/19 05:49:11;;;;;;;;;;;;;;;;;;5010644;28;19940;-92
2021/09/19 05:51:40;;;;;;;;;;;;;;;;;;5020642;28;19929;-92
2021/09/19 05:54:08;;;;;;;;;;;;;;;;;;4990282;28;19929;-90
2021/09/19 05:56:36;;;;;;;;;;;;;;;;;;4997300;28;19925;-93
2021/09/19 05:59:05;;;;;;;;;;;;;;;;;;5003012;28;19933;-93
2021/09/19 06:01:35;;;;;;;;;;;;;;;;;;4996962;28;19925;-93
2021/09/19 06:04:03;;;;;;;;;;;;;;;;;;5003488;28;19925;-92
2021/09/19 06:06:32;;;;;;;;;;;;;;;;;;5001727;28;19929;-93
2021/09/19 06:09:00;;;;;;;;;;;;;;;;;;5019079;28;20547;-92
2021/09/19 06:11:28;;;;;;;;;;;;;;;;;;5016495;28;19948;-91
2021/09/19 06:13:57;;;;;;;;;;;;;;;;;;4999727;28;19932;-92
2021/09/19 06:16:25;;;;;;;;;;;;;;;;;;4997970;28;19932;-94
2021/09/19 06:18:55;;;;;;;;;;;;;;;;;;5016201;28;20255;-93
2021/09/19 06:21:23;;;;;;;;;;;;;;;;;;5028896;28;19940;-94
2021/09/19 06:23:52;;;;;;;;;;;;;;;;;;5028323;28;19916;-94
2021/09/19 06:26:20;;;;;;;;;;;;;;;;;;5017189;28;19935;-93
2021/09/19 06:28:48;;;;;;;;;;;;;;;;;;5020378;28;19909;-93
2021/09/19 06:31:17;;;;;;;;;;;;;;;;;;5031650;28;19925;-93
2021/09/19 06:33:45;;;;;;;;;;;;;;;;;;5025681;28;19925;-93
2021/09/19 06:36:15;;;;;;;;;;;;;;;;;;5010002;28;19925;-94
2021/09/19 06:38:46;;;;;;;;;;;;;;;;;;5020685;28;19920;-94
2021/09/19 06:41:15;;;;;;;;;;;;;;;;;;5020802;28;20452;-93
2021/09/19 06:43:43;;;;;;;;;;;;;;;;;;5012285;28;19925;-95
2021/09/19 06:46:12;;;;;;;;;;;;;;;;;;5029142;28;20379;-92
2021/09/19 06:48:42;;;;;;;;;;;;;;;;;;5002431;28;19917;-93
2021/09/19 06:51:11;;;;;;;;;;;;;;;;;;5011840;28;19921;-93
2021/09/19 06:53:41;;;;;;;;;;;;;;;;;;5028038;28;19919;-94
2021/09/19 06:56:09;;;;;;;;;;;;;;;;;;5033849;28;19913;-96
2021/09/19 06:58:38;;;;;;;;;;;;;;;;;;5021708;28;19920;-95
2021/09/19 07:01:07;;;;;;;;;;;;;;;;;;5034842;28;19913;-95
2021/09/19 07:03:36;;;;;;;;;;;;;;;;;;5018650;28;19929;-96
2021/09/19 07:06:05;;;;;;;;;;;;;;;;;;5034985;28;19913;-93
2021/09/19 07:08:33;;;;;;;;;;;;;;;;;;5019421;28;19915;-94
2021/09/19 07:11:03;;;;;;;;;;;;;;;;;;5018061;28;19925;-91
2021/09/19 07:13:31;;;;;;;;;;;;;;;;;;5017992;28;19909;-94
2021/09/19 07:16:00;;;;;;;;;;;;;;;;;;5023054;28;19916;-94
2021/09/19 07:18:29;;;;;;;;;;;;;;;;;;5030449;28;19925;-94
2021/09/19 07:20:58;;;;;;;;;;;;;;;;;;5025590;28;19925;-94
2021/09/19 07:23:26;;;;;;;;;;;;;;;;;;5017072;28;19923;-94
2021/09/19 07:25:54;;;;;;;;;;;;;;;;;;5021443;28;19936;-93
2021/09/19 07:28:24;;;;;;;;;;;;;;;;;;5012723;28;19929;-94
2021/09/19 07:30:53;;;;;;;;;;;;;;;;;;5032848;28;19932;-93
2021/09/19 07:33:22;;;;;;;;;;;;;;;;;;5030229;28;19929;-93
2021/09/19 07:35:51;;;;;;;;;;;;;;;;;;5040287;28;19940;-94
2021/09/19 07:38:21;;;;;;;;;;;;;;;;;;5008529;28;19929;-93
2021/09/19 07:40:49;;;;;;;;;;;;;;;;;;5012166;28;19929;-94
2021/09/19 07:43:18;;;;;;;;;;;;;;;;;;5023666;28;19925;-94
2021/09/19 07:45:48;;;;;;;;;;;;;;;;;;5011562;28;19929;-95
2021/09/19 07:48:17;;;;;;;;;;;;;;;;;;5027460;28;20003;-92
2021/09/19 07:50:45;;;;;;;;;;;;;;;;;;5009013;28;19929;-94
2021/09/19 07:53:14;;;;;;;;;;;;;;;;;;5019442;28;19926;-93
2021/09/19 07:55:43;;;;;;;;;;;;;;;;;;5013088;28;19933;-94
2021/09/19 07:58:11;;;;;;;;;;;;;;;;;;5014518;28;20297;-94
2021/09/19 08:00:40;;;;;;;;;;;;;;;;;;5020987;28;19932;-94
2021/09/19 08:03:10;;;;;;;;;;;;;;;;;;5014786;28;19925;-93
2021/09/19 08:05:39;;;;;;;;;;;;;;;;;;5021158;28;19909;-93
2021/09/19 08:08:08;;;;;;;;;;;;;;;;;;4986747;28;19921;-90
2021/09/19 08:10:36;;;;;;;;;;;;;;;;;;4996306;28;19937;-85
2021/09/19 08:13:04;;;;;;;;;;;;;;;;;;4990117;28;19932;-92
2021/09/19 08:15:33;;;;;;;;;;;;;;;;;;4983302;28;19938;-90
2021/09/19 08:18:01;;;;;;;;;;;;;;;;;;4993571;28;19929;-92
2021/09/19 08:20:31;;;;;;;;;;;;;;;;;;5002693;28;19925;-91
2021/09/19 08:23:03;;;;;;;;;;;;;;;;;;5001865;28;19932;-95
2021/09/19 08:25:32;;;;;;;;;;;;;;;;;;5023710;28;19943;-94
2021/09/19 08:28:00;;;;;;;;;;;;;;;;;;5011040;28;19925;-93
2021/09/19 08:30:30;;;;;;;;;;;;;;;;;;5014012;28;19932;-92
2021/09/19 08:32:59;;;;;;;;;;;;;;;;;;4996668;28;19933;-92
2021/09/19 08:35:27;;;;;;;;;;;;;;;;;;5019180;28;19924;-92
2021/09/19 08:37:59;;;;;;;;;;;;;;;;;;5015357;28;20401;-93
2021/09/19 08:40:28;;;;;;;;;;;;;;;;;;5008797;28;19930;-90
2021/09/19 08:42:56;;;;;;;;;;;;;;;;;;4995617;28;19936;-90
2021/09/19 08:45:24;;;;;;;;;;;;;;;;;;4996661;28;20709;-91
2021/09/19 08:47:53;;;;;;;;;;;;;;;;;;4990513;28;19940;-92
2021/09/19 08:50:21;;;;;;;;;;;;;;;;;;5002725;28;19936;-92
2021/09/19 08:52:50;;;;;;;;;;;;;;;;;;5009072;28;19936;-90
2021/09/19 08:55:19;;;;;;;;;;;;;;;;;;4990455;28;19940;-88
2021/09/19 08:57:49;;;;;;;;;;;;;;;;;;5002099;28;19929;-86
2021/09/19 09:00:17;;;;;;;;;;;;;;;;;;4986956;28;19929;-88
2021/09/19 09:02:50;;;;;;;;;;;;;;;;;;5012290;28;19940;-90
2021/09/19 09:05:20;;;;;;;;;;;;;;;;;;5003849;28;19936;-93
2021/09/19 09:07:51;;;;;;;;;;;;;;;;;;5008524;28;19935;-96
2021/09/19 09:10:31;;;;;;;;;;;;;;;;;;5056313;23;19924;-88
2021/09/19 09:13:01;;;;;;;;;;;;;;;;;;5060308;28;19924;-88
2021/09/19 09:15:33;;;;;;;;;;;;;;;;;;5044633;28;19932;-90
2021/09/19 09:18:04;;;;;;;;;;;;;;;;;;5052785;28;20302;-89
2021/09/19 09:20:45;;;;;;;;;;;;;;;;;;5037978;28;19931;-89
2021/09/19 09:23:23;;;;;;;;;;;;;;;;;;5043583;28;19924;-88
2021/09/19 09:26:07;;;;;;;;;;;;;;;;;;5045910;28;20496;-88
2021/09/19 09:28:41;;;;;;;;;;;;;;;;;;5041278;28;19935;-88
2021/09/19 09:31:09;;;;;;;;;;;;;;;;;;5046015;28;19925;-88
2021/09/19 09:33:38;;;;;;;;;;;;;;;;;;5081205;28;20314;-87
2021/09/19 09:36:09;;;;;;;;;;;;;;;;;;5034309;28;19939;-88
2021/09/19 09:38:38;;;;;;;;;;;;;;;;;;5045680;28;19925;-88
2021/09/19 09:41:06;;;;;;;;;;;;;;;;;;5030192;28;19932;-88
2021/09/19 09:43:34;;;;;;;;;;;;;;;;;;5047446;28;19932;-88
2021/09/19 09:46:11;;;;;;;;;;;;;;;;;;5050517;28;19932;-88
2021/09/19 09:48:40;;;;;;;;;;;;;;;;;;5044776;28;19932;-89
2021/09/19 09:51:21;;;;;;;;;;;;;;;;;;5038990;28;20305;-88
2021/09/19 09:53:53;;;;;;;;;;;;;;;;;;5034280;28;19924;-88
2021/09/19 09:56:21;;;;;;;;;;;;;;;;;;5026885;28;19932;-88
2021/09/19 09:58:50;;;;;;;;;;;;;;;;;;5037718;28;20914;-89
2021/09/19 10:01:20;;;;;;;;;;;;;;;;;;5044984;28;19928;-88
2021/09/19 10:03:50;;;;;;;;;;;;;;;;;;5026409;28;19924;-88
2021/09/19 10:06:18;;;;;;;;;;;;;;;;;;5037520;28;22078;-87
2021/09/19 10:08:50;;;;;;;;;;;;;;;;;;5031898;28;19932;-88
2021/09/19 10:11:18;;;;;;;;;;;;;;;;;;5046385;28;19928;-88
2021/09/19 10:13:46;;;;;;;;;;;;;;;;;;5032081;28;19924;-88
2021/09/19 10:16:16;;;;;;;;;;;;;;;;;;5061071;28;19938;-88
2021/09/19 10:18:49;;;;;;;;;;;;;;;;;;5055859;28;20389;-89
2021/09/19 10:21:18;;;;;;;;;;;;;;;;;;5026107;28;21214;-87
2021/09/19 10:23:47;;;;;;;;;;;;;;;;;;5045734;28;19946;-87
2021/09/19 10:26:18;;;;;;;;;;;;;;;;;;5027743;28;19928;-88
2021/09/19 10:28:48;;;;;;;;;;;;;;;;;;5020841;28;20495;-88
2021/09/19 10:31:24;;;;;;;;;;;;;;;;;;5039669;28;19925;-88
2021/09/19 10:33:54;;;;;;;;;;;;;;;;;;5048076;28;19928;-88
2021/09/19 10:36:24;;;;;;;;;;;;;;;;;;5046071;28;19928;-89
2021/09/19 10:38:53;;;;;;;;;;;;;;;;;;5019348;28;20350;-87
2021/09/19 10:41:22;;;;;;;;;;;;;;;;;;5030310;28;19924;-88
2021/09/19 10:43:50;;;;;;;;;;;;;;;;;;5061917;28;19928;-89
2021/09/19 10:46:37;;;;;;;;;;;;;;;;;;5028037;28;19932;-88
2021/09/19 10:49:12;;;;;;;;;;;;;;;;;;5043210;28;19935;-87
2021/09/19 10:52:01;;;;;;;;;;;;;;;;;;5033029;28;19930;-88
2021/09/19 10:54:46;;;;;;;;;;;;;;;;;;5030970;28;19932;-90
2021/09/19 10:57:15;;;;;;;;;;;;;;;;;;5030380;28;19932;-88
2021/09/19 10:59:58;;;;;;;;;;;;;;;;;;5030677;28;19959;-89
2021/09/19 11:02:27;;;;;;;;;;;;;;;;;;5027915;28;20313;-88
2021/09/19 11:05:11;;;;;;;;;;;;;;;;;;5031979;28;19928;-89
2021/09/19 11:07:40;;;;;;;;;;;;;;;;;;5031268;28;19928;-88
2021/09/19 11:10:09;;;;;;;;;;;;;;;;;;5028407;28;19951;-90
2021/09/19 11:12:41;;;;;;;;;;;;;;;;;;5034688;28;19928;-89
2021/09/19 11:15:12;;;;;;;;;;;;;;;;;;5044338;28;19928;-88
2021/09/19 11:17:43;;;;;;;;;;;;;;;;;;5032292;28;19929;-88
2021/09/19 11:20:21;;;;;;;;;;;;;;;;;;5032026;28;19927;-89
2021/09/19 11:22:52;;;;;;;;;;;;;;;;;;5041819;28;19924;-89
2021/09/19 11:25:21;;;;;;;;;;;;;;;;;;5052818;28;19928;-90
2021/09/19 11:27:50;;;;;;;;;;;;;;;;;;5057317;28;20416;-88
2021/09/19 11:30:21;;;;;;;;;;;;;;;;;;5048617;28;20226;-88
2021/09/19 11:32:49;;;;;;;;;;;;;;;;;;5045687;28;19931;-88
2021/09/19 11:35:17;;;;;;;;;;;;;;;;;;5064413;28;19946;-88
2021/09/19 11:37:58;;;;;;;;;;;;;;;;;;5041568;28;19933;-90
2021/09/19 11:40:26;;;;;;;;;;;;;;;;;;5066590;28;19931;-87
2021/09/19 11:42:57;;;;;;;;;;;;;;;;;;5045014;28;19929;-89
2021/09/19 11:45:25;;;;;;;;;;;;;;;;;;5064324;28;19924;-88
2021/09/19 11:47:54;;;;;;;;;;;;;;;;;;5046930;28;20390;-86
2021/09/19 11:50:23;;;;;;;;;;;;;;;;;;5051678;28;19931;-87
2021/09/19 11:52:52;;;;;;;;;;;;;;;;;;5069660;28;19924;-88
2021/09/19 11:55:22;;;;;;;;;;;;;;;;;;5051686;28;19924;-89
2021/09/19 11:57:50;;;;;;;;;;;;;;;;;;5068366;28;19924;-87
2021/09/19 12:00:18;;;;;;;;;;;;;;;;;;5064212;28;20423;-87
2021/09/19 12:02:48;;;;;;;;;;;;;;;;;;5048477;28;20306;-89
2021/09/19 12:05:16;;;;;;;;;;;;;;;;;;5065624;28;19932;-86
2021/09/19 12:07:44;;;;;;;;;;;;;;;;;;5051166;28;19924;-85
2021/09/19 12:10:13;;;;;;;;;;;;;;;;;;5051287;28;19932;-87
2021/09/19 12:12:42;;;;;;;;;;;;;;;;;;5065484;28;19931;-86
2021/09/19 12:15:11;;;;;;;;;;;;;;;;;;5061336;28;19924;-89
2021/09/19 12:17:39;;;;;;;;;;;;;;;;;;5052403;28;19924;-88
2021/09/19 12:20:11;;;;;;;;;;;;;;;;;;5044911;28;20394;-87
2021/09/19 12:22:39;;;;;;;;;;;;;;;;;;5061076;28;20408;-90
2021/09/19 12:25:08;;;;;;;;;;;;;;;;;;5054336;28;19931;-90
2021/09/19 12:27:44;;;;;;;;;;;;;;;;;;5046539;28;19939;-91
2021/09/19 12:30:14;;;;;;;;;;;;;;;;;;5045232;28;21365;-86
2021/09/19 12:32:42;;;;;;;;;;;;;;;;;;5048300;28;19955;-86
2021/09/19 12:35:11;;;;;;;;;;;;;;;;;;5076690;28;19931;-86
2021/09/19 12:37:43;;;;;;;;;;;;;;;;;;5063421;28;19931;-86
2021/09/19 12:40:13;;;;;;;;;;;;;;;;;;5066511;28;19928;-87
2021/09/19 12:42:41;;;;;;;;;;;;;;;;;;5068084;28;19924;-88
2021/09/19 12:45:13;;;;;;;;;;;;;;;;;;5044922;28;19924;-85
2021/09/19 12:47:41;;;;;;;;;;;;;;;;;;5065051;28;20306;-85
2021/09/19 12:50:13;;;;;;;;;;;;;;;;;;5064024;28;20374;-85
2021/09/19 12:52:41;;;;;;;;;;;;;;;;;;5037089;28;19924;-88
2021/09/19 12:55:15;;;;;;;;;;;;;;;;;;5049994;28;20286;-87
2021/09/19 12:57:44;;;;;;;;;;;;;;;;;;5050910;28;19928;-88
2021/09/19 13:00:14;;;;;;;;;;;;;;;;;;5044406;28;19940;-88
2021/09/19 13:02:42;;;;;;;;;;;;;;;;;;5050058;28;19924;-88
2021/09/19 13:05:11;;;;;;;;;;;;;;;;;;5051559;28;20297;-87
2021/09/19 13:07:39;;;;;;;;;;;;;;;;;;5050841;28;19924;-88
2021/09/19 13:10:08;;;;;;;;;;;;;;;;;;5064548;28;20313;-88
2021/09/19 13:12:37;;;;;;;;;;;;;;;;;;5050082;28;19938;-87
2021/09/19 13:15:05;;;;;;;;;;;;;;;;;;5064086;28;19931;-88
2021/09/19 13:17:35;;;;;;;;;;;;;;;;;;5046145;28;19924;-87
2021/09/19 13:20:05;;;;;;;;;;;;;;;;;;5052303;28;19936;-87
2021/09/19 13:22:33;;;;;;;;;;;;;;;;;;5073015;28;19924;-86
2021/09/19 13:25:04;;;;;;;;;;;;;;;;;;5050261;28;19931;-88
2021/09/19 13:28:11;;;;;;;;;;;;;;;;;;5046112;28;19924;-86
2021/09/19 13:31:45;;;;;;;;;;;;;;;;;;;;;
2021/09/19 13:34:24;;;;;;;;;;;;;;;;;;5047223;28;20010;-87
2021/09/19 13:36:59;;;;;;;;;;;;;;;;;;5046306;28;20322;-86
2021/09/19 13:39:33;;;;;;;;;;;;;;;;;;5038062;28;19936;-86
2021/09/19 13:42:02;;;;;;;;;;;;;;;;;;5056226;28;19943;-88
2021/09/19 13:44:32;;;;;;;;;;;;;;;;;;5045549;28;19936;-85
2021/09/19 13:47:04;;;;;;;;;;;;;;;;;;5053687;28;19928;-88
2021/09/19 13:49:37;;;;;;;;;;;;;;;;;;5040697;28;19924;-88
2021/09/19 13:52:05;;;;;;;;;;;;;;;;;;5039093;28;20307;-87
2021/09/19 13:54:34;;;;;;;;;;;;;;;;;;5066401;28;19928;-85
2021/09/19 13:57:02;;;;;;;;;;;;;;;;;;5045986;28;19924;-88
2021/09/19 13:59:31;;;;;;;;;;;;;;;;;;5041701;28;19932;-86
2021/09/19 14:01:59;;;;;;;;;;;;;;;;;;5062744;28;19932;-84
2021/09/19 14:04:28;;;;;;;;;;;;;;;;;;5064158;28;20282;-85
2021/09/19 14:06:57;;;;;;;;;;;;;;;;;;5056739;28;19931;-83
2021/09/19 14:09:26;;;;;;;;;;;;;;;;;;5049821;28;20195;-87
2021/09/19 14:11:54;;;;;;;;;;;;;;;;;;5042866;28;19928;-87
2021/09/19 14:14:22;;;;;;;;;;;;;;;;;;5046745;28;19940;-87
2021/09/19 14:16:54;;;;;;;;;;;;;;;;;;5042434;28;22383;-85
2021/09/19 14:19:23;;;;;;;;;;;;;;;;;;5046845;28;20018;-86
2021/09/19 14:21:52;;;;;;;;;;;;;;;;;;5065286;28;19924;-87
2021/09/19 14:24:22;;;;;;;;;;;;;;;;;;5044493;28;19931;-87
2021/09/19 14:26:51;;;;;;;;;;;;;;;;;;5048022;28;19924;-86
2021/09/19 14:29:19;;;;;;;;;;;;;;;;;;5034101;28;20174;-87
2021/09/19 14:31:48;;;;;;;;;;;;;;;;;;5050168;28;19924;-86
2021/09/19 14:34:16;;;;;;;;;;;;;;;;;;5040609;28;20174;-87
2021/09/19 14:36:46;;;;;;;;;;;;;;;;;;5079157;28;19924;-87
2021/09/19 14:39:15;;;;;;;;;;;;;;;;;;5065005;28;20315;-87
2021/09/19 14:41:46;;;;;;;;;;;;;;;;;;5046880;28;19924;-87
2021/09/19 14:44:14;;;;;;;;;;;;;;;;;;5047744;28;19933;-82
2021/09/19 14:46:43;;;;;;;;;;;;;;;;;;5050415;28;19931;-88
2021/09/19 14:49:15;;;;;;;;;;;;;;;;;;5045033;28;19931;-88
2021/09/19 14:51:44;;;;;;;;;;;;;;;;;;5060926;28;20254;-87
2021/09/19 14:54:13;;;;;;;;;;;;;;;;;;5060122;28;19924;-89
2021/09/19 14:56:41;;;;;;;;;;;;;;;;;;5040728;28;19932;-87
2021/09/19 14:59:11;;;;;;;;;;;;;;;;;;5042536;28;19928;-87
2021/09/19 15:01:39;;;;;;;;;;;;;;;;;;5060600;28;19924;-86
2021/09/19 15:04:08;;;;;;;;;;;;;;;;;;5051042;28;19928;-87
2021/09/19 15:06:36;;;;;;;;;;;;;;;;;;5043757;28;19932;-86
2021/09/19 15:09:07;;;;;;;;;;;;;;;;;;5047293;28;20378;-86
2021/09/19 15:11:39;;;;;;;;;;;;;;;;;;5054199;28;20318;-87
2021/09/19 15:14:10;;;;;;;;;;;;;;;;;;5043696;28;19940;-86
2021/09/19 15:16:38;;;;;;;;;;;;;;;;;;5072902;28;19935;-86
2021/09/19 15:19:07;;;;;;;;;;;;;;;;;;5056164;28;19924;-86
2021/09/19 15:21:35;;;;;;;;;;;;;;;;;;5052342;28;19924;-86
2021/09/19 15:24:04;;;;;;;;;;;;;;;;;;5044635;28;19931;-86
2021/09/19 15:26:33;;;;;;;;;;;;;;;;;;5058640;28;19943;-86
2021/09/19 15:29:02;;;;;;;;;;;;;;;;;;5048569;28;19932;-86
2021/09/19 15:31:32;;;;;;;;;;;;;;;;;;5068538;28;19935;-85
2021/09/19 15:34:01;;;;;;;;;;;;;;;;;;5065527;28;19924;-85
2021/09/19 15:36:30;;;;;;;;;;;;;;;;;;5048002;28;20527;-84
2021/09/19 15:39:00;;;;;;;;;;;;;;;;;;5044906;28;19932;-85
2021/09/19 15:41:32;;;;;;;;;;;;;;;;;;5042497;28;20313;-84
2021/09/19 15:44:02;;;;;;;;;;;;;;;;;;5058266;28;19933;-87
2021/09/19 15:46:36;;;;;;;;;;;;;;;;;;5055810;28;19924;-85
2021/09/19 15:49:05;;;;;;;;;;;;;;;;;;5033484;28;19924;-85
2021/09/19 15:51:36;;;;;;;;;;;;;;;;;;5064308;28;20382;-87
2021/09/19 15:54:06;;;;;;;;;;;;;;;;;;5047940;28;19928;-87
2021/09/19 15:56:38;;;;;;;;;;;;;;;;;;5050068;28;19924;-86
2021/09/19 15:59:10;;;;;;;;;;;;;;;;;;5059493;28;19939;-87
2021/09/19 16:01:40;;;;;;;;;;;;;;;;;;5048747;28;19955;-87
2021/09/19 16:04:09;;;;;;;;;;;;;;;;;;5059578;28;19933;-87
2021/09/19 16:06:38;;;;;;;;;;;;;;;;;;5054666;28;19936;-87
2021/09/19 16:09:07;;;;;;;;;;;;;;;;;;5045835;28;19931;-87
2021/09/19 16:11:35;;;;;;;;;;;;;;;;;;5049090;28;19928;-86
2021/09/19 16:14:04;;;;;;;;;;;;;;;;;;5046757;28;20381;-86
2021/09/19 16:16:33;;;;;;;;;;;;;;;;;;5042758;28;19943;-88
2021/09/19 16:19:03;;;;;;;;;;;;;;;;;;5043646;28;19924;-87
2021/09/19 16:21:31;;;;;;;;;;;;;;;;;;5052917;28;19940;-87
2021/09/19 16:23:59;;;;;;;;;;;;;;;;;;5049673;28;19932;-84
2021/09/19 16:26:30;;;;;;;;;;;;;;;;;;5042798;28;21084;-88
2021/09/19 16:29:00;;;;;;;;;;;;;;;;;;5052371;28;19924;-85
2021/09/19 16:31:28;;;;;;;;;;;;;;;;;;5046732;28;19924;-90
2021/09/19 16:33:57;;;;;;;;;;;;;;;;;;5043874;28;19931;-88
2021/09/19 16:36:27;;;;;;;;;;;;;;;;;;5049592;28;19959;-90
2021/09/19 16:38:56;;;;;;;;;;;;;;;;;;5051821;28;19938;-88
2021/09/19 16:41:25;;;;;;;;;;;;;;;;;;5060996;28;19932;-85
2021/09/19 16:43:54;;;;;;;;;;;;;;;;;;5051440;28;19998;-83
2021/09/19 16:46:23;;;;;;;;;;;;;;;;;;5061990;28;19931;-84
2021/09/19 16:48:51;;;;;;;;;;;;;;;;;;5057010;28;19943;-84
2021/09/19 16:51:20;;;;;;;;;;;;;;;;;;5055493;28;20317;-86
2021/09/19 16:53:50;;;;;;;;;;;;;;;;;;5053531;28;19924;-86
2021/09/19 16:56:20;;;;;;;;;;;;;;;;;;5054832;28;20366;-85
2021/09/19 16:58:49;;;;;;;;;;;;;;;;;;5057437;28;19928;-88
2021/09/19 17:01:17;;;;;;;;;;;;;;;;;;5055975;28;19932;-86
2021/09/19 17:03:46;;;;;;;;;;;;;;;;;;5059357;28;19939;-89
2021/09/19 17:06:16;;;;;;;;;;;;;;;;;;5061603;28;19932;-91
2021/09/19 17:08:45;;;;;;;;;;;;;;;;;;5073977;28;19931;-90
2021/09/19 17:11:16;;;;;;;;;;;;;;;;;;5058333;28;19928;-86
2021/09/19 17:13:49;;;;;;;;;;;;;;;;;;5057194;28;19924;-88
2021/09/19 17:16:18;;;;;;;;;;;;;;;;;;5056231;28;20290;-84